sensor_id;sensor_type;location;lat;lon;timestamp;P1;durP1;ratioP1;P2;durP2;ratioP2
3433;SDS011;1730;41.932;25.548;2022-08-18T00:00:10;6.10;;;5.70;;
3433;SDS011;1730;41.932;25.548;2022-08-18T00:02:39;4.80;;;4.60;;
3433;SDS011;1730;41.932;25.548;2022-08-18T00:05:08;6.10;;;5.17;;
3433;SDS011;1730;41.932;25.548;2022-08-18T00:07:36;6.27;;;5.67;;
3433;SDS011;1730;41.932;25.548;2022-08-18T00:10:03;5.80;;;5.33;;
3433;SDS011;1730;41.932;25.548;2022-08-18T00:12:34;5.77;;;5.37;;
3433;SDS011;1730;41.932;25.548;2022-08-18T00:15:03;8.80;;;5.47;;
3433;SDS011;1730;41.932;25.548;2022-08-18T00:17:32;5.73;;;5.33;;
3433;SDS011;1730;41.932;25.548;2022-08-18T00:19:58;5.90;;;5.30;;
3433;SDS011;1730;41.932;25.548;2022-08-18T00:22:24;5.80;;;5.43;;
3433;SDS011;1730;41.932;25.548;2022-08-18T00:24:51;5.87;;;5.47;;
3433;SDS011;1730;41.932;25.548;2022-08-18T00:27:19;8.60;;;5.40;;
3433;SDS011;1730;41.932;25.548;2022-08-18T00:29:47;6.80;;;6.30;;
3433;SDS011;1730;41.932;25.548;2022-08-18T00:32:14;6.57;;;5.70;;
3433;SDS011;1730;41.932;25.548;2022-08-18T00:34:41;5.70;;;5.30;;
3433;SDS011;1730;41.932;25.548;2022-08-18T00:37:07;11.23;;;5.37;;
3433;SDS011;1730;41.932;25.548;2022-08-18T00:39:33;6.77;;;6.10;;
3433;SDS011;1730;41.932;25.548;2022-08-18T00:41:59;9.80;;;5.50;;
3433;SDS011;1730;41.932;25.548;2022-08-18T00:44:35;8.40;;;5.40;;
3433;SDS011;1730;41.932;25.548;2022-08-18T00:47:01;6.57;;;5.97;;
3433;SDS011;1730;41.932;25.548;2022-08-18T00:49:28;10.00;;;6.70;;
3433;SDS011;1730;41.932;25.548;2022-08-18T00:51:54;10.90;;;5.90;;
3433;SDS011;1730;41.932;25.548;2022-08-18T00:54:23;5.73;;;5.43;;
3433;SDS011;1730;41.932;25.548;2022-08-18T00:56:56;6.43;;;5.60;;
3433;SDS011;1730;41.932;25.548;2022-08-18T00:59:43;12.03;;;5.67;;
3433;SDS011;1730;41.932;25.548;2022-08-18T01:02:21;5.30;;;5.00;;
3433;SDS011;1730;41.932;25.548;2022-08-18T01:07:58;5.03;;;4.73;;
3433;SDS011;1730;41.932;25.548;2022-08-18T01:10:19;6.10;;;5.70;;
3433;SDS011;1730;41.932;25.548;2022-08-18T01:12:47;5.83;;;5.30;;
3433;SDS011;1730;41.932;25.548;2022-08-18T01:15:16;7.03;;;5.10;;
3433;SDS011;1730;41.932;25.548;2022-08-18T01:17:44;7.17;;;5.57;;
3433;SDS011;1730;41.932;25.548;2022-08-18T01:20:33;6.93;;;5.23;;
3433;SDS011;1730;41.932;25.548;2022-08-18T01:23:21;5.40;;;5.00;;
3433;SDS011;1730;41.932;25.548;2022-08-18T01:25:48;5.87;;;5.33;;
3433;SDS011;1730;41.932;25.548;2022-08-18T01:28:28;5.90;;;5.30;;
3433;SDS011;1730;41.932;25.548;2022-08-18T01:30:57;5.83;;;5.40;;
3433;SDS011;1730;41.932;25.548;2022-08-18T01:33:31;6.73;;;6.30;;
3433;SDS011;1730;41.932;25.548;2022-08-18T01:36:15;5.93;;;5.53;;
3433;SDS011;1730;41.932;25.548;2022-08-18T01:38:44;7.77;;;5.70;;
3433;SDS011;1730;41.932;25.548;2022-08-18T01:41:12;5.80;;;5.40;;
3433;SDS011;1730;41.932;25.548;2022-08-18T01:43:39;6.13;;;5.53;;
3433;SDS011;1730;41.932;25.548;2022-08-18T01:46:05;6.53;;;5.93;;
3433;SDS011;1730;41.932;25.548;2022-08-18T01:48:35;6.17;;;5.67;;
3433;SDS011;1730;41.932;25.548;2022-08-18T01:51:02;6.30;;;5.80;;
3433;SDS011;1730;41.932;25.548;2022-08-18T01:53:30;9.63;;;5.93;;
3433;SDS011;1730;41.932;25.548;2022-08-18T01:55:56;6.70;;;6.20;;
3433;SDS011;1730;41.932;25.548;2022-08-18T01:58:21;6.33;;;5.83;;
3433;SDS011;1730;41.932;25.548;2022-08-18T02:00:55;11.07;;;6.10;;
3433;SDS011;1730;41.932;25.548;2022-08-18T02:03:23;6.20;;;5.70;;
3433;SDS011;1730;41.932;25.548;2022-08-18T02:05:54;5.83;;;5.47;;
3433;SDS011;1730;41.932;25.548;2022-08-18T02:08:24;8.60;;;5.73;;
3433;SDS011;1730;41.932;25.548;2022-08-18T02:10:50;6.40;;;5.90;;
3433;SDS011;1730;41.932;25.548;2022-08-18T02:13:15;6.67;;;6.07;;
3433;SDS011;1730;41.932;25.548;2022-08-18T02:15:41;9.50;;;6.00;;
3433;SDS011;1730;41.932;25.548;2022-08-18T02:18:12;10.80;;;5.47;;
3433;SDS011;1730;41.932;25.548;2022-08-18T02:20:39;6.63;;;5.97;;
3433;SDS011;1730;41.932;25.548;2022-08-18T02:23:05;6.70;;;6.00;;
3433;SDS011;1730;41.932;25.548;2022-08-18T02:25:30;6.60;;;6.10;;
3433;SDS011;1730;41.932;25.548;2022-08-18T02:27:56;7.13;;;6.27;;
3433;SDS011;1730;41.932;25.548;2022-08-18T02:30:22;7.00;;;6.30;;
3433;SDS011;1730;41.932;25.548;2022-08-18T02:32:47;7.30;;;6.60;;
3433;SDS011;1730;41.932;25.548;2022-08-18T02:35:13;10.87;;;6.57;;
3433;SDS011;1730;41.932;25.548;2022-08-18T02:37:39;8.50;;;6.40;;
3433;SDS011;1730;41.932;25.548;2022-08-18T02:40:06;6.53;;;6.00;;
3433;SDS011;1730;41.932;25.548;2022-08-18T02:42:34;6.27;;;5.87;;
3433;SDS011;1730;41.932;25.548;2022-08-18T02:44:59;8.50;;;6.40;;
3433;SDS011;1730;41.932;25.548;2022-08-18T02:47:25;11.60;;;7.13;;
3433;SDS011;1730;41.932;25.548;2022-08-18T02:49:51;6.23;;;5.63;;
3433;SDS011;1730;41.932;25.548;2022-08-18T02:52:16;7.80;;;6.03;;
3433;SDS011;1730;41.932;25.548;2022-08-18T02:54:42;7.00;;;5.50;;
3433;SDS011;1730;41.932;25.548;2022-08-18T02:57:09;6.50;;;6.03;;
3433;SDS011;1730;41.932;25.548;2022-08-18T02:59:36;8.17;;;6.43;;
3433;SDS011;1730;41.932;25.548;2022-08-18T03:02:04;7.93;;;6.37;;
3433;SDS011;1730;41.932;25.548;2022-08-18T03:04:31;6.83;;;5.90;;
3433;SDS011;1730;41.932;25.548;2022-08-18T03:06:59;6.67;;;6.07;;
3433;SDS011;1730;41.932;25.548;2022-08-18T03:09:28;6.73;;;6.13;;
3433;SDS011;1730;41.932;25.548;2022-08-18T03:11:56;6.40;;;6.00;;
3433;SDS011;1730;41.932;25.548;2022-08-18T03:14:21;7.13;;;6.50;;
3433;SDS011;1730;41.932;25.548;2022-08-18T03:16:48;7.03;;;5.43;;
3433;SDS011;1730;41.932;25.548;2022-08-18T03:19:14;6.70;;;6.20;;
3433;SDS011;1730;41.932;25.548;2022-08-18T03:21:41;7.10;;;5.60;;
3433;SDS011;1730;41.932;25.548;2022-08-18T03:24:08;6.80;;;6.10;;
3433;SDS011;1730;41.932;25.548;2022-08-18T03:26:38;6.27;;;5.87;;
3433;SDS011;1730;41.932;25.548;2022-08-18T03:29:07;10.03;;;6.53;;
3433;SDS011;1730;41.932;25.548;2022-08-18T03:31:33;9.07;;;6.90;;
3433;SDS011;1730;41.932;25.548;2022-08-18T03:34:00;6.47;;;5.97;;
3433;SDS011;1730;41.932;25.548;2022-08-18T03:36:27;6.90;;;6.30;;
3433;SDS011;1730;41.932;25.548;2022-08-18T03:38:56;9.73;;;8.03;;
3433;SDS011;1730;41.932;25.548;2022-08-18T03:41:23;6.40;;;5.80;;
3433;SDS011;1730;41.932;25.548;2022-08-18T03:43:51;6.83;;;6.20;;
3433;SDS011;1730;41.932;25.548;2022-08-18T03:46:18;6.87;;;6.27;;
3433;SDS011;1730;41.932;25.548;2022-08-18T03:48:46;6.23;;;5.70;;
3433;SDS011;1730;41.932;25.548;2022-08-18T03:51:14;7.57;;;6.23;;
3433;SDS011;1730;41.932;25.548;2022-08-18T03:53:43;6.10;;;5.60;;
3433;SDS011;1730;41.932;25.548;2022-08-18T03:56:14;7.17;;;6.13;;
3433;SDS011;1730;41.932;25.548;2022-08-18T03:58:46;6.70;;;6.20;;
3433;SDS011;1730;41.932;25.548;2022-08-18T04:01:15;7.10;;;6.60;;
3433;SDS011;1730;41.932;25.548;2022-08-18T04:03:43;5.97;;;5.57;;
3433;SDS011;1730;41.932;25.548;2022-08-18T04:06:15;6.50;;;5.90;;
3433;SDS011;1730;41.932;25.548;2022-08-18T04:08:42;5.87;;;5.40;;
3433;SDS011;1730;41.932;25.548;2022-08-18T04:11:09;5.30;;;5.00;;
3433;SDS011;1730;41.932;25.548;2022-08-18T04:13:38;6.33;;;5.30;;
3433;SDS011;1730;41.932;25.548;2022-08-18T04:16:04;6.90;;;6.40;;
3433;SDS011;1730;41.932;25.548;2022-08-18T04:18:30;6.20;;;5.73;;
3433;SDS011;1730;41.932;25.548;2022-08-18T04:21:01;6.50;;;6.03;;
3433;SDS011;1730;41.932;25.548;2022-08-18T04:23:28;6.43;;;5.93;;
3433;SDS011;1730;41.932;25.548;2022-08-18T04:25:55;6.30;;;5.80;;
3433;SDS011;1730;41.932;25.548;2022-08-18T04:28:21;6.33;;;5.73;;
3433;SDS011;1730;41.932;25.548;2022-08-18T04:30:47;6.50;;;5.97;;
3433;SDS011;1730;41.932;25.548;2022-08-18T04:33:13;6.50;;;6.00;;
3433;SDS011;1730;41.932;25.548;2022-08-18T04:35:39;5.87;;;5.37;;
3433;SDS011;1730;41.932;25.548;2022-08-18T04:38:04;5.67;;;5.17;;
3433;SDS011;1730;41.932;25.548;2022-08-18T04:40:31;10.07;;;5.20;;
3433;SDS011;1730;41.932;25.548;2022-08-18T04:42:59;5.33;;;4.83;;
3433;SDS011;1730;41.932;25.548;2022-08-18T04:45:26;5.73;;;4.70;;
3433;SDS011;1730;41.932;25.548;2022-08-18T04:47:52;13.07;;;5.63;;
3433;SDS011;1730;41.932;25.548;2022-08-18T04:50:18;7.53;;;5.60;;
3433;SDS011;1730;41.932;25.548;2022-08-18T04:52:44;7.07;;;5.60;;
3433;SDS011;1730;41.932;25.548;2022-08-18T04:55:28;10.73;;;5.37;;
3433;SDS011;1730;41.932;25.548;2022-08-18T04:57:54;6.07;;;5.47;;
3433;SDS011;1730;41.932;25.548;2022-08-18T05:00:20;5.77;;;5.10;;
3433;SDS011;1730;41.932;25.548;2022-08-18T05:02:46;7.07;;;4.53;;
3433;SDS011;1730;41.932;25.548;2022-08-18T05:05:13;5.63;;;5.13;;
3433;SDS011;1730;41.932;25.548;2022-08-18T05:07:45;5.03;;;4.67;;
3433;SDS011;1730;41.932;25.548;2022-08-18T05:10:12;5.30;;;4.53;;
3433;SDS011;1730;41.932;25.548;2022-08-18T05:12:38;11.60;;;5.40;;
3433;SDS011;1730;41.932;25.548;2022-08-18T05:15:07;6.27;;;5.00;;
3433;SDS011;1730;41.932;25.548;2022-08-18T05:17:35;5.50;;;4.90;;
3433;SDS011;1730;41.932;25.548;2022-08-18T05:20:05;5.67;;;5.17;;
3433;SDS011;1730;41.932;25.548;2022-08-18T05:22:35;4.43;;;4.10;;
3433;SDS011;1730;41.932;25.548;2022-08-18T05:25:03;7.50;;;4.70;;
3433;SDS011;1730;41.932;25.548;2022-08-18T05:27:30;5.60;;;4.40;;
3433;SDS011;1730;41.932;25.548;2022-08-18T05:29:57;8.77;;;5.10;;
3433;SDS011;1730;41.932;25.548;2022-08-18T05:32:22;7.80;;;5.20;;
3433;SDS011;1730;41.932;25.548;2022-08-18T05:34:48;3.77;;;3.50;;
3433;SDS011;1730;41.932;25.548;2022-08-18T05:37:25;4.57;;;4.27;;
3433;SDS011;1730;41.932;25.548;2022-08-18T05:40:01;4.70;;;4.40;;
3433;SDS011;1730;41.932;25.548;2022-08-18T05:42:33;8.90;;;4.73;;
3433;SDS011;1730;41.932;25.548;2022-08-18T05:45:02;5.00;;;4.50;;
3433;SDS011;1730;41.932;25.548;2022-08-18T05:47:32;5.20;;;4.57;;
3433;SDS011;1730;41.932;25.548;2022-08-18T05:50:06;12.10;;;4.43;;
3433;SDS011;1730;41.932;25.548;2022-08-18T05:52:39;6.97;;;4.57;;
3433;SDS011;1730;41.932;25.548;2022-08-18T05:55:13;5.37;;;5.07;;
3433;SDS011;1730;41.932;25.548;2022-08-18T05:58:04;9.80;;;7.37;;
3433;SDS011;1730;41.932;25.548;2022-08-18T06:00:50;5.20;;;4.90;;
3433;SDS011;1730;41.932;25.548;2022-08-18T06:03:31;8.67;;;5.33;;
3433;SDS011;1730;41.932;25.548;2022-08-18T06:06:09;11.93;;;4.57;;
3433;SDS011;1730;41.932;25.548;2022-08-18T06:08:39;5.33;;;4.83;;
3433;SDS011;1730;41.932;25.548;2022-08-18T06:11:11;4.70;;;4.30;;
3433;SDS011;1730;41.932;25.548;2022-08-18T06:13:37;5.40;;;5.00;;
3433;SDS011;1730;41.932;25.548;2022-08-18T06:21:34;12.23;;;5.30;;
3433;SDS011;1730;41.932;25.548;2022-08-18T06:36:03;5.10;;;4.63;;
3433;SDS011;1730;41.932;25.548;2022-08-18T06:42:16;6.10;;;5.30;;
3433;SDS011;1730;41.932;25.548;2022-08-18T06:45:04;4.90;;;4.50;;
3433;SDS011;1730;41.932;25.548;2022-08-18T06:59:33;5.20;;;4.37;;
3433;SDS011;1730;41.932;25.548;2022-08-18T07:02:01;5.73;;;5.33;;
3433;SDS011;1730;41.932;25.548;2022-08-18T07:04:44;5.57;;;5.27;;
3433;SDS011;1730;41.932;25.548;2022-08-18T07:10:03;10.50;;;5.03;;
3433;SDS011;1730;41.932;25.548;2022-08-18T07:15:39;5.40;;;4.90;;
3433;SDS011;1730;41.932;25.548;2022-08-18T07:18:10;5.80;;;4.80;;
3433;SDS011;1730;41.932;25.548;2022-08-18T07:20:59;11.10;;;5.23;;
3433;SDS011;1730;41.932;25.548;2022-08-18T07:23:32;5.10;;;4.70;;
3433;SDS011;1730;41.932;25.548;2022-08-18T07:26:15;6.27;;;5.00;;
3433;SDS011;1730;41.932;25.548;2022-08-18T07:29:35;12.63;;;5.30;;
3433;SDS011;1730;41.932;25.548;2022-08-18T07:32:06;5.50;;;5.10;;
3433;SDS011;1730;41.932;25.548;2022-08-18T07:34:46;6.30;;;5.00;;
3433;SDS011;1730;41.932;25.548;2022-08-18T07:37:18;7.30;;;4.93;;
3433;SDS011;1730;41.932;25.548;2022-08-18T07:42:53;8.03;;;4.90;;
3433;SDS011;1730;41.932;25.548;2022-08-18T07:48:22;6.00;;;5.40;;
3433;SDS011;1730;41.932;25.548;2022-08-18T07:53:53;5.83;;;5.20;;
3433;SDS011;1730;41.932;25.548;2022-08-18T07:59:18;4.80;;;4.50;;
3433;SDS011;1730;41.932;25.548;2022-08-18T08:20:42;4.47;;;4.07;;
3433;SDS011;1730;41.932;25.548;2022-08-18T08:25:58;5.07;;;4.67;;
3433;SDS011;1730;41.932;25.548;2022-08-18T08:28:54;6.70;;;4.37;;
3433;SDS011;1730;41.932;25.548;2022-08-18T08:38:05;4.53;;;4.10;;
3433;SDS011;1730;41.932;25.548;2022-08-18T08:46:48;4.40;;;4.20;;
3433;SDS011;1730;41.932;25.548;2022-08-18T08:52:26;4.73;;;4.30;;
3433;SDS011;1730;41.932;25.548;2022-08-18T08:55:03;7.03;;;4.20;;
3433;SDS011;1730;41.932;25.548;2022-08-18T08:57:38;4.87;;;4.40;;
3433;SDS011;1730;41.932;25.548;2022-08-18T09:00:11;5.07;;;4.67;;
3433;SDS011;1730;41.932;25.548;2022-08-18T09:05:44;10.27;;;4.40;;
3433;SDS011;1730;41.932;25.548;2022-08-18T09:14:10;4.73;;;4.43;;
3433;SDS011;1730;41.932;25.548;2022-08-18T09:16:48;4.37;;;4.17;;
3433;SDS011;1730;41.932;25.548;2022-08-18T09:39:25;7.47;;;3.87;;
3433;SDS011;1730;41.932;25.548;2022-08-18T09:42:37;4.77;;;4.37;;
3433;SDS011;1730;41.932;25.548;2022-08-18T09:47:56;3.80;;;3.60;;
3433;SDS011;1730;41.932;25.548;2022-08-18T09:53:00;4.07;;;3.77;;
3433;SDS011;1730;41.932;25.548;2022-08-18T09:55:55;3.97;;;3.63;;
3433;SDS011;1730;41.932;25.548;2022-08-18T10:01:34;5.20;;;3.83;;
3433;SDS011;1730;41.932;25.548;2022-08-18T10:10:25;3.83;;;3.53;;
3433;SDS011;1730;41.932;25.548;2022-08-18T10:19:21;5.60;;;4.60;;
3433;SDS011;1730;41.932;25.548;2022-08-18T10:24:50;4.17;;;3.97;;
3433;SDS011;1730;41.932;25.548;2022-08-18T10:30:06;4.13;;;3.80;;
3433;SDS011;1730;41.932;25.548;2022-08-18T10:32:58;4.23;;;4.00;;
3433;SDS011;1730;41.932;25.548;2022-08-18T10:40:37;4.83;;;4.03;;
3433;SDS011;1730;41.932;25.548;2022-08-18T10:43:16;5.20;;;4.80;;
3433;SDS011;1730;41.932;25.548;2022-08-18T10:45:46;4.53;;;4.30;;
3433;SDS011;1730;41.932;25.548;2022-08-18T10:48:21;5.17;;;4.70;;
3433;SDS011;1730;41.932;25.548;2022-08-18T10:59:30;8.90;;;4.73;;
3433;SDS011;1730;41.932;25.548;2022-08-18T11:04:56;4.77;;;4.47;;
3433;SDS011;1730;41.932;25.548;2022-08-18T11:07:30;4.27;;;3.97;;
3433;SDS011;1730;41.932;25.548;2022-08-18T11:09:57;5.00;;;4.60;;
3433;SDS011;1730;41.932;25.548;2022-08-18T11:15:24;4.47;;;4.27;;
3433;SDS011;1730;41.932;25.548;2022-08-18T11:18:07;5.37;;;5.07;;
3433;SDS011;1730;41.932;25.548;2022-08-18T11:20:34;4.13;;;3.93;;
3433;SDS011;1730;41.932;25.548;2022-08-18T11:23:03;5.80;;;4.60;;
3433;SDS011;1730;41.932;25.548;2022-08-18T11:25:37;9.60;;;4.60;;
3433;SDS011;1730;41.932;25.548;2022-08-18T11:28:13;5.27;;;4.37;;
3433;SDS011;1730;41.932;25.548;2022-08-18T11:30:44;7.13;;;4.27;;
3433;SDS011;1730;41.932;25.548;2022-08-18T11:33:15;4.93;;;4.73;;
3433;SDS011;1730;41.932;25.548;2022-08-18T11:35:48;4.83;;;4.20;;
3433;SDS011;1730;41.932;25.548;2022-08-18T11:38:21;3.87;;;3.67;;
3433;SDS011;1730;41.932;25.548;2022-08-18T11:40:49;5.27;;;4.67;;
3433;SDS011;1730;41.932;25.548;2022-08-18T11:43:29;5.10;;;4.70;;
3433;SDS011;1730;41.932;25.548;2022-08-18T11:46:10;10.17;;;4.70;;
3433;SDS011;1730;41.932;25.548;2022-08-18T11:51:18;4.53;;;4.23;;
3433;SDS011;1730;41.932;25.548;2022-08-18T11:56:34;4.80;;;4.50;;
3433;SDS011;1730;41.932;25.548;2022-08-18T12:07:12;10.67;;;5.27;;
3433;SDS011;1730;41.932;25.548;2022-08-18T12:09:45;5.00;;;4.60;;
3433;SDS011;1730;41.932;25.548;2022-08-18T12:15:04;7.10;;;4.23;;
3433;SDS011;1730;41.932;25.548;2022-08-18T12:17:45;8.57;;;4.53;;
3433;SDS011;1730;41.932;25.548;2022-08-18T12:20:12;4.50;;;4.20;;
3433;SDS011;1730;41.932;25.548;2022-08-18T12:22:40;5.00;;;4.50;;
3433;SDS011;1730;41.932;25.548;2022-08-18T12:25:08;5.10;;;4.57;;
3433;SDS011;1730;41.932;25.548;2022-08-18T12:27:36;4.40;;;4.10;;
3433;SDS011;1730;41.932;25.548;2022-08-18T12:30:02;5.30;;;4.80;;
3433;SDS011;1730;41.932;25.548;2022-08-18T12:32:31;6.00;;;5.20;;
3433;SDS011;1730;41.932;25.548;2022-08-18T12:34:58;4.93;;;4.63;;
3433;SDS011;1730;41.932;25.548;2022-08-18T12:37:26;8.20;;;4.70;;
3433;SDS011;1730;41.932;25.548;2022-08-18T12:39:53;8.53;;;5.60;;
3433;SDS011;1730;41.932;25.548;2022-08-18T12:42:20;7.90;;;5.23;;
3433;SDS011;1730;41.932;25.548;2022-08-18T12:44:46;5.43;;;4.93;;
3433;SDS011;1730;41.932;25.548;2022-08-18T12:47:13;4.83;;;4.33;;
3433;SDS011;1730;41.932;25.548;2022-08-18T12:49:47;6.93;;;5.33;;
3433;SDS011;1730;41.932;25.548;2022-08-18T12:52:14;5.93;;;4.53;;
3433;SDS011;1730;41.932;25.548;2022-08-18T12:54:40;5.40;;;5.10;;
3433;SDS011;1730;41.932;25.548;2022-08-18T12:57:08;4.83;;;4.37;;
3433;SDS011;1730;41.932;25.548;2022-08-18T12:59:42;4.77;;;4.30;;
3433;SDS011;1730;41.932;25.548;2022-08-18T13:02:07;5.53;;;4.90;;
3433;SDS011;1730;41.932;25.548;2022-08-18T13:04:35;5.43;;;4.93;;
3433;SDS011;1730;41.932;25.548;2022-08-18T13:07:01;8.53;;;5.07;;
3433;SDS011;1730;41.932;25.548;2022-08-18T13:09:28;5.10;;;4.70;;
3433;SDS011;1730;41.932;25.548;2022-08-18T13:11:55;7.63;;;5.13;;
3433;SDS011;1730;41.932;25.548;2022-08-18T13:14:21;8.53;;;4.80;;
3433;SDS011;1730;41.932;25.548;2022-08-18T13:16:46;11.00;;;4.80;;
3433;SDS011;1730;41.932;25.548;2022-08-18T13:19:12;5.30;;;4.90;;
3433;SDS011;1730;41.932;25.548;2022-08-18T13:21:40;5.23;;;4.93;;
3433;SDS011;1730;41.932;25.548;2022-08-18T13:24:08;5.87;;;4.60;;
3433;SDS011;1730;41.932;25.548;2022-08-18T13:26:36;4.60;;;4.27;;
3433;SDS011;1730;41.932;25.548;2022-08-18T13:29:04;5.97;;;5.30;;
3433;SDS011;1730;41.932;25.548;2022-08-18T13:31:30;7.47;;;5.10;;
3433;SDS011;1730;41.932;25.548;2022-08-18T13:33:57;5.40;;;4.90;;
3433;SDS011;1730;41.932;25.548;2022-08-18T13:42:51;6.00;;;4.93;;
3433;SDS011;1730;41.932;25.548;2022-08-18T13:45:20;5.43;;;4.93;;
3433;SDS011;1730;41.932;25.548;2022-08-18T13:47:47;4.60;;;4.30;;
3433;SDS011;1730;41.932;25.548;2022-08-18T13:50:23;4.70;;;4.40;;
3433;SDS011;1730;41.932;25.548;2022-08-18T13:52:50;4.30;;;4.10;;
3433;SDS011;1730;41.932;25.548;2022-08-18T13:55:18;4.50;;;4.20;;
3433;SDS011;1730;41.932;25.548;2022-08-18T13:57:44;4.30;;;4.10;;
3433;SDS011;1730;41.932;25.548;2022-08-18T14:00:18;6.90;;;4.80;;
3433;SDS011;1730;41.932;25.548;2022-08-18T14:02:48;4.80;;;4.40;;
3433;SDS011;1730;41.932;25.548;2022-08-18T14:05:19;5.90;;;4.77;;
3433;SDS011;1730;41.932;25.548;2022-08-18T14:07:47;5.33;;;4.83;;
3433;SDS011;1730;41.932;25.548;2022-08-18T14:10:14;5.50;;;5.10;;
3433;SDS011;1730;41.932;25.548;2022-08-18T14:12:40;5.03;;;4.60;;
3433;SDS011;1730;41.932;25.548;2022-08-18T14:15:09;4.83;;;4.53;;
3433;SDS011;1730;41.932;25.548;2022-08-18T14:17:36;5.83;;;5.10;;
3433;SDS011;1730;41.932;25.548;2022-08-18T14:20:02;5.67;;;5.10;;
3433;SDS011;1730;41.932;25.548;2022-08-18T14:23:02;5.37;;;4.97;;
3433;SDS011;1730;41.932;25.548;2022-08-18T14:25:48;5.10;;;4.27;;
3433;SDS011;1730;41.932;25.548;2022-08-18T14:28:37;5.13;;;4.77;;
3433;SDS011;1730;41.932;25.548;2022-08-18T14:32:17;4.97;;;4.67;;
3433;SDS011;1730;41.932;25.548;2022-08-18T14:34:26;5.50;;;4.70;;
3433;SDS011;1730;41.932;25.548;2022-08-18T14:36:52;4.77;;;4.47;;
3433;SDS011;1730;41.932;25.548;2022-08-18T14:39:52;4.40;;;4.20;;
3433;SDS011;1730;41.932;25.548;2022-08-18T14:42:18;5.60;;;5.30;;
3433;SDS011;1730;41.932;25.548;2022-08-18T14:44:45;5.53;;;5.23;;
3433;SDS011;1730;41.932;25.548;2022-08-18T14:47:13;4.73;;;4.43;;
3433;SDS011;1730;41.932;25.548;2022-08-18T14:49:39;5.27;;;4.60;;
3433;SDS011;1730;41.932;25.548;2022-08-18T14:52:05;5.23;;;4.83;;
3433;SDS011;1730;41.932;25.548;2022-08-18T14:54:38;8.10;;;5.47;;
3433;SDS011;1730;41.932;25.548;2022-08-18T14:57:23;6.30;;;4.87;;
3433;SDS011;1730;41.932;25.548;2022-08-18T14:59:49;4.70;;;4.37;;
3433;SDS011;1730;41.932;25.548;2022-08-18T15:02:15;7.57;;;4.90;;
3433;SDS011;1730;41.932;25.548;2022-08-18T15:04:43;6.40;;;4.83;;
3433;SDS011;1730;41.932;25.548;2022-08-18T15:07:09;5.17;;;4.77;;
3433;SDS011;1730;41.932;25.548;2022-08-18T15:09:35;4.80;;;4.40;;
3433;SDS011;1730;41.932;25.548;2022-08-18T15:12:00;6.07;;;5.37;;
3433;SDS011;1730;41.932;25.548;2022-08-18T15:14:28;5.53;;;4.80;;
3433;SDS011;1730;41.932;25.548;2022-08-18T15:17:03;7.43;;;4.83;;
3433;SDS011;1730;41.932;25.548;2022-08-18T15:19:30;5.57;;;5.00;;
3433;SDS011;1730;41.932;25.548;2022-08-18T15:21:56;5.10;;;4.60;;
3433;SDS011;1730;41.932;25.548;2022-08-18T15:24:41;5.47;;;5.17;;
3433;SDS011;1730;41.932;25.548;2022-08-18T15:27:29;5.97;;;5.30;;
3433;SDS011;1730;41.932;25.548;2022-08-18T15:29:56;9.03;;;5.40;;
3433;SDS011;1730;41.932;25.548;2022-08-18T15:32:23;5.93;;;5.53;;
3433;SDS011;1730;41.932;25.548;2022-08-18T15:34:50;8.30;;;5.67;;
3433;SDS011;1730;41.932;25.548;2022-08-18T15:37:16;6.00;;;5.40;;
3433;SDS011;1730;41.932;25.548;2022-08-18T15:39:42;6.20;;;5.70;;
3433;SDS011;1730;41.932;25.548;2022-08-18T15:42:09;5.77;;;5.37;;
3433;SDS011;1730;41.932;25.548;2022-08-18T15:44:40;7.60;;;5.83;;
3433;SDS011;1730;41.932;25.548;2022-08-18T15:47:11;10.03;;;6.10;;
3433;SDS011;1730;41.932;25.548;2022-08-18T15:49:37;6.17;;;5.70;;
3433;SDS011;1730;41.932;25.548;2022-08-18T15:52:02;6.90;;;6.50;;
3433;SDS011;1730;41.932;25.548;2022-08-18T15:54:28;8.00;;;7.23;;
3433;SDS011;1730;41.932;25.548;2022-08-18T15:56:54;5.93;;;5.53;;
3433;SDS011;1730;41.932;25.548;2022-08-18T15:59:20;7.07;;;6.50;;
3433;SDS011;1730;41.932;25.548;2022-08-18T16:01:45;7.70;;;6.33;;
3433;SDS011;1730;41.932;25.548;2022-08-18T16:04:11;8.40;;;7.00;;
3433;SDS011;1730;41.932;25.548;2022-08-18T16:06:39;7.73;;;6.97;;
3433;SDS011;1730;41.932;25.548;2022-08-18T16:09:05;7.60;;;6.70;;
3433;SDS011;1730;41.932;25.548;2022-08-18T16:11:31;6.93;;;6.43;;
3433;SDS011;1730;41.932;25.548;2022-08-18T16:13:57;8.17;;;7.57;;
3433;SDS011;1730;41.932;25.548;2022-08-18T16:16:23;7.53;;;6.50;;
3433;SDS011;1730;41.932;25.548;2022-08-18T16:18:50;6.87;;;6.30;;
3433;SDS011;1730;41.932;25.548;2022-08-18T16:21:18;7.10;;;6.40;;
3433;SDS011;1730;41.932;25.548;2022-08-18T16:23:47;9.47;;;7.00;;
3433;SDS011;1730;41.932;25.548;2022-08-18T16:26:15;9.13;;;6.70;;
3433;SDS011;1730;41.932;25.548;2022-08-18T16:28:43;9.70;;;7.27;;
3433;SDS011;1730;41.932;25.548;2022-08-18T16:31:11;8.33;;;7.47;;
3433;SDS011;1730;41.932;25.548;2022-08-18T16:33:41;14.10;;;7.60;;
3433;SDS011;1730;41.932;25.548;2022-08-18T16:36:08;7.30;;;6.80;;
3433;SDS011;1730;41.932;25.548;2022-08-18T16:38:36;12.30;;;6.90;;
3433;SDS011;1730;41.932;25.548;2022-08-18T16:41:03;12.77;;;7.50;;
3433;SDS011;1730;41.932;25.548;2022-08-18T16:43:31;9.40;;;7.33;;
3433;SDS011;1730;41.932;25.548;2022-08-18T16:45:58;7.33;;;6.33;;
3433;SDS011;1730;41.932;25.548;2022-08-18T16:48:27;11.80;;;7.40;;
3433;SDS011;1730;41.932;25.548;2022-08-18T16:50:53;11.60;;;7.30;;
3433;SDS011;1730;41.932;25.548;2022-08-18T16:53:19;8.80;;;7.90;;
3433;SDS011;1730;41.932;25.548;2022-08-18T16:55:44;10.77;;;7.30;;
3433;SDS011;1730;41.932;25.548;2022-08-18T16:58:10;12.20;;;7.47;;
3433;SDS011;1730;41.932;25.548;2022-08-18T17:00:55;9.23;;;8.10;;
3433;SDS011;1730;41.932;25.548;2022-08-18T17:03:40;13.47;;;7.63;;
3433;SDS011;1730;41.932;25.548;2022-08-18T17:06:24;7.80;;;7.30;;
3433;SDS011;1730;41.932;25.548;2022-08-18T17:08:56;14.30;;;7.27;;
3433;SDS011;1730;41.932;25.548;2022-08-18T17:11:22;15.63;;;7.50;;
3433;SDS011;1730;41.932;25.548;2022-08-18T17:13:50;10.27;;;7.30;;
3433;SDS011;1730;41.932;25.548;2022-08-18T17:16:17;8.50;;;7.70;;
3433;SDS011;1730;41.932;25.548;2022-08-18T17:18:43;17.50;;;8.57;;
3433;SDS011;1730;41.932;25.548;2022-08-18T17:21:11;11.00;;;7.20;;
3433;SDS011;1730;41.932;25.548;2022-08-18T17:23:38;10.70;;;8.67;;
3433;SDS011;1730;41.932;25.548;2022-08-18T17:26:06;13.30;;;8.20;;
3433;SDS011;1730;41.932;25.548;2022-08-18T17:28:43;14.57;;;9.40;;
3433;SDS011;1730;41.932;25.548;2022-08-18T17:31:14;13.50;;;10.23;;
3433;SDS011;1730;41.932;25.548;2022-08-18T17:33:40;8.83;;;7.93;;
3433;SDS011;1730;41.932;25.548;2022-08-18T17:36:12;12.70;;;9.13;;
3433;SDS011;1730;41.932;25.548;2022-08-18T17:38:57;8.87;;;8.13;;
3433;SDS011;1730;41.932;25.548;2022-08-18T17:41:25;10.43;;;8.47;;
3433;SDS011;1730;41.932;25.548;2022-08-18T17:43:55;15.63;;;9.70;;
3433;SDS011;1730;41.932;25.548;2022-08-18T17:46:24;13.40;;;9.27;;
3433;SDS011;1730;41.932;25.548;2022-08-18T17:51:40;9.27;;;8.40;;
3433;SDS011;1730;41.932;25.548;2022-08-18T17:54:22;9.93;;;8.50;;
3433;SDS011;1730;41.932;25.548;2022-08-18T17:56:58;34.10;;;18.23;;
3433;SDS011;1730;41.932;25.548;2022-08-18T17:59:37;10.80;;;9.77;;
3433;SDS011;1730;41.932;25.548;2022-08-18T18:02:14;31.23;;;16.57;;
3433;SDS011;1730;41.932;25.548;2022-08-18T18:04:47;44.77;;;29.20;;
3433;SDS011;1730;41.932;25.548;2022-08-18T18:07:30;13.33;;;10.67;;
3433;SDS011;1730;41.932;25.548;2022-08-18T18:10:01;14.17;;;11.53;;
3433;SDS011;1730;41.932;25.548;2022-08-18T18:12:38;19.73;;;12.93;;
3433;SDS011;1730;41.932;25.548;2022-08-18T18:15:06;32.73;;;18.10;;
3433;SDS011;1730;41.932;25.548;2022-08-18T18:17:35;24.97;;;16.00;;
3433;SDS011;1730;41.932;25.548;2022-08-18T18:20:37;51.43;;;25.43;;
3433;SDS011;1730;41.932;25.548;2022-08-18T18:23:21;46.20;;;28.93;;
3433;SDS011;1730;41.932;25.548;2022-08-18T18:25:48;32.20;;;22.23;;
3433;SDS011;1730;41.932;25.548;2022-08-18T18:28:33;18.13;;;13.90;;
3433;SDS011;1730;41.932;25.548;2022-08-18T18:31:21;16.90;;;11.73;;